sensor_id;sensor_type;location;lat;lon;timestamp;P1;durP1;ratioP1;P2;durP2;ratioP2
52982;SDS011;48698;45.736;13.926;2022-07-22T00:00:22;19.83;;;16.27;;
52982;SDS011;48698;45.736;13.926;2022-07-22T00:05:25;21.35;;;16.27;;
52982;SDS011;48698;45.736;13.926;2022-07-22T00:10:29;18.27;;;15.57;;
52982;SDS011;48698;45.736;13.926;2022-07-22T00:15:32;17.98;;;14.20;;
52982;SDS011;48698;45.736;13.926;2022-07-22T00:20:36;19.52;;;15.57;;
52982;SDS011;48698;45.736;13.926;2022-07-22T00:25:39;20.00;;;16.38;;
52982;SDS011;48698;45.736;13.926;2022-07-22T00:30:43;18.40;;;15.40;;
52982;SDS011;48698;45.736;13.926;2022-07-22T00:35:46;20.25;;;15.43;;
52982;SDS011;48698;45.736;13.926;2022-07-22T00:40:49;24.90;;;17.13;;
52982;SDS011;48698;45.736;13.926;2022-07-22T00:45:53;23.13;;;18.02;;
52982;SDS011;48698;45.736;13.926;2022-07-22T00:56:00;22.13;;;16.95;;
52982;SDS011;48698;45.736;13.926;2022-07-22T01:01:04;20.80;;;16.80;;
52982;SDS011;48698;45.736;13.926;2022-07-22T01:06:08;22.33;;;17.77;;
52982;SDS011;48698;45.736;13.926;2022-07-22T01:11:13;21.38;;;16.58;;
52982;SDS011;48698;45.736;13.926;2022-07-22T01:16:18;17.33;;;14.48;;
52982;SDS011;48698;45.736;13.926;2022-07-22T01:26:25;20.10;;;14.75;;
52982;SDS011;48698;45.736;13.926;2022-07-22T01:31:28;18.13;;;13.73;;
52982;SDS011;48698;45.736;13.926;2022-07-22T01:36:33;20.23;;;14.02;;
52982;SDS011;48698;45.736;13.926;2022-07-22T01:41:37;19.17;;;14.07;;
52982;SDS011;48698;45.736;13.926;2022-07-22T01:51:44;19.30;;;14.80;;
52982;SDS011;48698;45.736;13.926;2022-07-22T01:56:47;16.73;;;14.50;;
52982;SDS011;48698;45.736;13.926;2022-07-22T02:01:50;20.60;;;14.17;;
52982;SDS011;48698;45.736;13.926;2022-07-22T02:06:54;22.03;;;14.73;;
52982;SDS011;48698;45.736;13.926;2022-07-22T02:11:57;23.80;;;16.03;;
52982;SDS011;48698;45.736;13.926;2022-07-22T02:17:00;21.03;;;15.57;;
52982;SDS011;48698;45.736;13.926;2022-07-22T02:22:03;20.20;;;14.77;;
52982;SDS011;48698;45.736;13.926;2022-07-22T02:27:09;15.93;;;14.25;;
52982;SDS011;48698;45.736;13.926;2022-07-22T02:32:14;18.67;;;14.32;;
52982;SDS011;48698;45.736;13.926;2022-07-22T02:42:21;15.13;;;13.20;;
52982;SDS011;48698;45.736;13.926;2022-07-22T02:47:25;18.52;;;14.75;;
52982;SDS011;48698;45.736;13.926;2022-07-22T02:52:29;18.67;;;14.90;;
52982;SDS011;48698;45.736;13.926;2022-07-22T02:57:33;21.60;;;14.33;;
52982;SDS011;48698;45.736;13.926;2022-07-22T03:02:36;22.60;;;13.70;;
52982;SDS011;48698;45.736;13.926;2022-07-22T03:07:40;19.05;;;13.77;;
52982;SDS011;48698;45.736;13.926;2022-07-22T03:12:43;18.20;;;14.43;;
52982;SDS011;48698;45.736;13.926;2022-07-22T03:17:46;19.07;;;14.80;;
52982;SDS011;48698;45.736;13.926;2022-07-22T03:22:49;21.47;;;14.37;;
52982;SDS011;48698;45.736;13.926;2022-07-22T03:27:52;18.77;;;14.18;;
52982;SDS011;48698;45.736;13.926;2022-07-22T03:32:56;25.83;;;14.93;;
52982;SDS011;48698;45.736;13.926;2022-07-22T03:37:59;19.02;;;14.45;;
52982;SDS011;48698;45.736;13.926;2022-07-22T03:43:02;18.03;;;14.77;;
52982;SDS011;48698;45.736;13.926;2022-07-22T03:48:05;19.48;;;13.88;;
52982;SDS011;48698;45.736;13.926;2022-07-22T03:53:09;18.17;;;14.55;;
52982;SDS011;48698;45.736;13.926;2022-07-22T03:58:12;19.80;;;15.13;;
52982;SDS011;48698;45.736;13.926;2022-07-22T04:03:15;18.57;;;15.47;;
52982;SDS011;48698;45.736;13.926;2022-07-22T04:08:19;14.98;;;13.38;;
52982;SDS011;48698;45.736;13.926;2022-07-22T04:13:22;15.27;;;13.67;;
52982;SDS011;48698;45.736;13.926;2022-07-22T04:18:25;18.43;;;13.27;;
52982;SDS011;48698;45.736;13.926;2022-07-22T04:23:28;26.35;;;13.68;;
52982;SDS011;48698;45.736;13.926;2022-07-22T04:28:35;26.33;;;14.43;;
52982;SDS011;48698;45.736;13.926;2022-07-22T04:33:38;28.65;;;14.52;;
52982;SDS011;48698;45.736;13.926;2022-07-22T04:38:41;19.92;;;12.43;;
52982;SDS011;48698;45.736;13.926;2022-07-22T04:43:44;33.60;;;13.00;;
52982;SDS011;48698;45.736;13.926;2022-07-22T04:48:47;21.67;;;12.17;;
52982;SDS011;48698;45.736;13.926;2022-07-22T04:53:51;20.17;;;11.60;;
52982;SDS011;48698;45.736;13.926;2022-07-22T04:58:54;16.60;;;11.10;;
52982;SDS011;48698;45.736;13.926;2022-07-22T05:03:58;19.45;;;10.40;;
52982;SDS011;48698;45.736;13.926;2022-07-22T05:09:01;18.80;;;9.73;;
52982;SDS011;48698;45.736;13.926;2022-07-22T05:14:05;21.00;;;10.23;;
52982;SDS011;48698;45.736;13.926;2022-07-22T05:19:08;16.42;;;9.52;;
52982;SDS011;48698;45.736;13.926;2022-07-22T05:24:11;15.73;;;11.13;;
52982;SDS011;48698;45.736;13.926;2022-07-22T05:29:16;17.13;;;9.57;;
52982;SDS011;48698;45.736;13.926;2022-07-22T05:34:19;11.10;;;3.40;;
52982;SDS011;48698;45.736;13.926;2022-07-22T05:39:22;7.07;;;2.60;;
52982;SDS011;48698;45.736;13.926;2022-07-22T05:44:25;3.50;;;2.40;;
52982;SDS011;48698;45.736;13.926;2022-07-22T05:49:29;3.38;;;1.90;;
52982;SDS011;48698;45.736;13.926;2022-07-22T05:54:32;3.45;;;2.20;;
52982;SDS011;48698;45.736;13.926;2022-07-22T05:59:35;9.60;;;2.38;;
52982;SDS011;48698;45.736;13.926;2022-07-22T06:04:39;10.65;;;2.30;;
52982;SDS011;48698;45.736;13.926;2022-07-22T06:09:43;3.85;;;2.28;;
52982;SDS011;48698;45.736;13.926;2022-07-22T06:14:46;8.77;;;2.55;;
52982;SDS011;48698;45.736;13.926;2022-07-22T06:19:49;4.63;;;2.00;;
52982;SDS011;48698;45.736;13.926;2022-07-22T06:24:53;5.50;;;2.03;;
52982;SDS011;48698;45.736;13.926;2022-07-22T06:29:57;7.38;;;2.10;;
52982;SDS011;48698;45.736;13.926;2022-07-22T06:35:01;6.25;;;1.88;;
52982;SDS011;48698;45.736;13.926;2022-07-22T06:40:05;5.65;;;2.28;;
52982;SDS011;48698;45.736;13.926;2022-07-22T06:45:11;3.80;;;1.90;;
52982;SDS011;48698;45.736;13.926;2022-07-22T06:50:15;5.15;;;2.40;;
52982;SDS011;48698;45.736;13.926;2022-07-22T06:55:19;5.45;;;2.00;;
52982;SDS011;48698;45.736;13.926;2022-07-22T07:00:23;2.58;;;1.60;;
52982;SDS011;48698;45.736;13.926;2022-07-22T07:05:27;5.57;;;2.20;;
52982;SDS011;48698;45.736;13.926;2022-07-22T07:10:31;14.80;;;2.85;;
52982;SDS011;48698;45.736;13.926;2022-07-22T07:15:34;4.38;;;1.98;;
52982;SDS011;48698;45.736;13.926;2022-07-22T07:20:37;3.42;;;2.25;;
52982;SDS011;48698;45.736;13.926;2022-07-22T07:25:41;5.53;;;2.13;;
52982;SDS011;48698;45.736;13.926;2022-07-22T07:30:44;6.93;;;2.45;;
52982;SDS011;48698;45.736;13.926;2022-07-22T07:35:48;4.13;;;2.30;;
52982;SDS011;48698;45.736;13.926;2022-07-22T07:40:51;3.38;;;2.10;;
52982;SDS011;48698;45.736;13.926;2022-07-22T07:45:55;14.52;;;2.70;;
52982;SDS011;48698;45.736;13.926;2022-07-22T07:50:58;5.55;;;2.90;;
52982;SDS011;48698;45.736;13.926;2022-07-22T07:56:01;3.80;;;2.33;;
52982;SDS011;48698;45.736;13.926;2022-07-22T08:01:05;3.53;;;2.45;;
52982;SDS011;48698;45.736;13.926;2022-07-22T08:06:09;5.55;;;2.17;;
52982;SDS011;48698;45.736;13.926;2022-07-22T08:11:13;8.77;;;2.42;;
52982;SDS011;48698;45.736;13.926;2022-07-22T08:16:16;4.85;;;2.30;;
52982;SDS011;48698;45.736;13.926;2022-07-22T08:21:22;3.85;;;2.55;;
52982;SDS011;48698;45.736;13.926;2022-07-22T08:26:28;6.00;;;2.45;;
52982;SDS011;48698;45.736;13.926;2022-07-22T08:31:33;6.93;;;2.50;;
52982;SDS011;48698;45.736;13.926;2022-07-22T08:41:45;5.03;;;3.33;;
52982;SDS011;48698;45.736;13.926;2022-07-22T08:46:48;7.40;;;3.10;;
52982;SDS011;48698;45.736;13.926;2022-07-22T08:56:36;5.45;;;2.78;;
52982;SDS011;48698;45.736;13.926;2022-07-22T18:48:48;13.18;;;9.80;;
52982;SDS011;48698;45.736;13.926;2022-07-22T18:53:52;12.52;;;9.50;;
52982;SDS011;48698;45.736;13.926;2022-07-22T18:59:01;11.73;;;10.48;;
52982;SDS011;48698;45.736;13.926;2022-07-22T19:04:05;13.93;;;9.90;;
52982;SDS011;48698;45.736;13.926;2022-07-22T19:09:08;12.60;;;9.77;;
52982;SDS011;48698;45.736;13.926;2022-07-22T19:19:14;14.00;;;9.30;;
52982;SDS011;48698;45.736;13.926;2022-07-22T19:29:21;13.75;;;9.55;;
52982;SDS011;48698;45.736;13.926;2022-07-22T19:34:24;12.75;;;10.32;;
52982;SDS011;48698;45.736;13.926;2022-07-22T19:39:27;15.85;;;10.48;;
52982;SDS011;48698;45.736;13.926;2022-07-22T19:44:31;12.90;;;10.82;;
52982;SDS011;48698;45.736;13.926;2022-07-22T19:49:39;11.98;;;9.55;;
52982;SDS011;48698;45.736;13.926;2022-07-22T19:54:42;17.13;;;10.27;;
52982;SDS011;48698;45.736;13.926;2022-07-22T19:59:45;11.38;;;9.65;;
52982;SDS011;48698;45.736;13.926;2022-07-22T20:04:49;12.93;;;10.07;;
52982;SDS011;48698;45.736;13.926;2022-07-22T20:09:53;24.00;;;10.43;;
52982;SDS011;48698;45.736;13.926;2022-07-22T20:14:56;30.35;;;10.98;;
52982;SDS011;48698;45.736;13.926;2022-07-22T20:20:07;16.30;;;10.73;;
52982;SDS011;48698;45.736;13.926;2022-07-22T20:25:11;19.90;;;10.25;;
52982;SDS011;48698;45.736;13.926;2022-07-22T20:30:33;14.65;;;11.25;;
52982;SDS011;48698;45.736;13.926;2022-07-22T20:35:38;15.57;;;11.02;;
52982;SDS011;48698;45.736;13.926;2022-07-22T20:40:43;17.63;;;14.05;;
52982;SDS011;48698;45.736;13.926;2022-07-22T20:45:48;14.77;;;11.48;;
52982;SDS011;48698;45.736;13.926;2022-07-22T20:50:54;14.50;;;11.27;;
52982;SDS011;48698;45.736;13.926;2022-07-22T20:55:57;13.25;;;10.90;;
52982;SDS011;48698;45.736;13.926;2022-07-22T21:01:08;15.27;;;11.88;;
52982;SDS011;48698;45.736;13.926;2022-07-22T21:06:12;12.43;;;11.13;;
52982;SDS011;48698;45.736;13.926;2022-07-22T21:11:15;14.10;;;11.32;;
52982;SDS011;48698;45.736;13.926;2022-07-22T21:16:18;14.95;;;11.57;;
52982;SDS011;48698;45.736;13.926;2022-07-22T21:21:22;12.27;;;11.07;;
52982;SDS011;48698;45.736;13.926;2022-07-22T21:26:25;13.77;;;11.90;;
52982;SDS011;48698;45.736;13.926;2022-07-22T21:31:29;13.98;;;12.27;;
52982;SDS011;48698;45.736;13.926;2022-07-22T21:36:33;16.35;;;11.93;;
52982;SDS011;48698;45.736;13.926;2022-07-22T21:41:36;14.13;;;11.13;;
52982;SDS011;48698;45.736;13.926;2022-07-22T21:46:43;19.00;;;11.90;;
52982;SDS011;48698;45.736;13.926;2022-07-22T21:51:47;14.68;;;12.07;;
52982;SDS011;48698;45.736;13.926;2022-07-22T21:56:50;14.18;;;11.70;;
52982;SDS011;48698;45.736;13.926;2022-07-22T22:01:57;12.90;;;11.68;;
52982;SDS011;48698;45.736;13.926;2022-07-22T22:07:03;13.73;;;12.23;;
52982;SDS011;48698;45.736;13.926;2022-07-22T22:12:07;13.77;;;12.38;;
52982;SDS011;48698;45.736;13.926;2022-07-22T22:17:10;13.90;;;12.40;;
52982;SDS011;48698;45.736;13.926;2022-07-22T22:22:14;13.70;;;12.18;;
52982;SDS011;48698;45.736;13.926;2022-07-22T22:27:17;16.10;;;11.57;;
52982;SDS011;48698;45.736;13.926;2022-07-22T22:32:20;13.88;;;12.45;;
52982;SDS011;48698;45.736;13.926;2022-07-22T22:37:24;13.00;;;11.68;;
52982;SDS011;48698;45.736;13.926;2022-07-22T22:42:27;13.65;;;11.63;;
52982;SDS011;48698;45.736;13.926;2022-07-22T22:47:31;13.45;;;11.32;;
52982;SDS011;48698;45.736;13.926;2022-07-22T22:52:34;14.30;;;12.48;;
52982;SDS011;48698;45.736;13.926;2022-07-22T22:57:38;13.20;;;11.82;;
52982;SDS011;48698;45.736;13.926;2022-07-22T23:02:41;15.87;;;12.33;;
52982;SDS011;48698;45.736;13.926;2022-07-22T23:07:44;16.73;;;12.23;;
52982;SDS011;48698;45.736;13.926;2022-07-22T23:12:48;13.32;;;11.95;;
52982;SDS011;48698;45.736;13.926;2022-07-22T23:17:51;12.73;;;10.45;;
52982;SDS011;48698;45.736;13.926;2022-07-22T23:22:55;12.43;;;11.23;;
52982;SDS011;48698;45.736;13.926;2022-07-22T23:28:00;12.73;;;10.95;;
52982;SDS011;48698;45.736;13.926;2022-07-22T23:33:03;14.90;;;10.60;;
52982;SDS011;48698;45.736;13.926;2022-07-22T23:38:06;14.83;;;11.03;;
52982;SDS011;48698;45.736;13.926;2022-07-22T23:43:10;13.75;;;10.32;;
52982;SDS011;48698;45.736;13.926;2022-07-22T23:48:13;12.90;;;11.05;;
52982;SDS011;48698;45.736;13.926;2022-07-22T23:53:17;14.60;;;10.98;;
52982;SDS011;48698;45.736;13.926;2022-07-22T23:58:20;14.20;;;11.05;;
